Pride Of Kent — MQCJ2 — position and weather

sailwx.info

Track history (hours):
 
Tides and Currents Weather Stations Pressure Air Temp Water Temp Dewpoint Dewpoint Depression Visibility Wind Speed Wind Dir Waves Ship Positions

Pride Of Kent

Operator: P & O Ferries

Last reported at 2018-May-24 15:29 UTC. Time now 2018-May-24 15:46 UTC.
Position N 51°01' E 001°30'.

Length 180 m; draft 6 m.

Type: Passenger vessel. MMSI: 232009000.

Date/timePositionNaut miles runAvg speedWind from/ knotsBaromVisibWave heightAir tempDewpointWater temp
2018-May-24 15:29N 51°01' E 001°30'9 6.4
2018-May-24 14:04N 51°07' E 001°20'0 1.1
2018-May-24 13:58N 51°07' E 001°20'715.5
2018-May-24 13:30N 51°05' E 001°30'1 0.2
2018-May-24 09:00N 51°04' E 001°30'918.0
2018-May-24 08:31N 50°59' E 001°42'6 9.1
2018-May-24 07:53N 50°58' E 001°51'0 0.0
2018-May-24 07:14N 50°58' E 001°51'0 0.0
2018-May-24 06:59N 50°58' E 001°51'612.8
2018-May-24 06:30N 50°58' E 001°41'1019.0
2018-May-24 06:01N 51°03' E 001°28'7 6.2
2018-May-24 04:54N 51°07' E 001°20'0 0.1
2018-May-24 04:22N 51°07' E 001°20'3 8.5
2018-May-24 04:01N 51°07' E 001°25'918.1
2018-May-24 03:30N 51°01' E 001°36'917.4
2018-May-24 03:00N 50°58' E 001°50'1 1.9
2018-May-24 02:30N 50°58' E 001°51'0 0.0
2018-May-24 01:29N 50°58' E 001°51'5 9.8
2018-May-24 01:00N 50°58' E 001°44'918.1
2018-May-24 00:31N 51°03' E 001°31'8 1.7
2018-May-23 19:35N 51°07' E 001°20'1 5.0
2018-May-23 19:22N 51°07' E 001°22'617.7
2018-May-23 19:00N 51°04' E 001°31'918.5
2018-May-23 18:30N 50°59' E 001°43'5 1.4
2018-May-23 14:58N 50°58' E 001°51'0 0.0
2018-May-23 14:28N 50°58' E 001°51'0 0.0
2018-May-23 12:10N 50°58' E 001°51'0 0.0
2018-May-23 11:28N 50°58' E 001°51'0 0.0
2018-May-23 10:58N 50°58' E 001°51'0 0.0
2018-May-23 09:01N 50°58' E 001°51'0 0.0
2018-May-23 08:49N 50°58' E 001°51'0 0.0
2018-May-23 08:22N 50°58' E 001°51'0 0.0
2018-May-23 06:04N 50°58' E 001°51'0 0.0
2018-May-23 05:34N 50°58' E 001°51'0 0.0
2018-May-23 03:52N 50°58' E 001°51'0 0.0
2018-May-23 03:22N 50°58' E 001°51'0 0.0
2018-May-23 02:51N 50°58' E 001°51'410.2
2018-May-23 02:30N 50°58' E 001°45'510.6
2018-May-23 02:00N 51°03' E 001°45'4 7.9
2018-May-23 01:30N 51°01' E 001°40'714.2
2018-May-23 01:00N 51°01' E 001°29'713.8
2018-May-23 00:30N 51°03' E 001°19'0 0.8
2018-May-23 00:00N 51°04' E 001°19'1 2.0
2018-May-22 23:27N 51°05' E 001°20'1 1.8
2018-May-22 23:00N 51°05' E 001°20'713.7
2018-May-22 22:30N 51°08' E 001°31'713.4
2018-May-22 22:01N 51°06' E 001°41'5 9.2
2018-May-22 21:29N 51°03' E 001°47'0 0.0
2018-May-22 20:56N 51°03' E 001°47'0 0.1
2018-May-22 20:29N 51°03' E 001°47'1 1.6
2018-May-22 20:00N 51°04' E 001°47'4 7.5
2018-May-22 19:30N 51°03' E 001°53'4 7.2
2018-May-22 19:00N 51°03' E 001°58'3 6.4
2018-May-22 18:29N 51°04' E 002°04'0 0.1
2018-May-22 17:59N 51°04' E 002°03'0 0.0
2018-May-22 17:29N 51°04' E 002°03'0 0.0
2018-May-22 16:59N 51°04' E 002°03'0 0.1
2018-May-22 16:30N 51°04' E 002°04'3 6.5
2018-May-22 16:00N 51°03' E 002°09'4 7.5
2018-May-22 15:30N 51°04' E 002°15'2 4.6
2018-May-22 15:01N 51°04' E 002°18'2 2.8
2018-May-22 14:27N 51°03' E 002°20'0 0.1
2018-May-22 14:00N 51°03' E 002°20'1 1.5
2018-May-22 13:29N 51°03' E 002°22'0 0.2
2018-May-22 12:56N 51°03' E 002°22'0 0.0
2018-May-22 12:29N 51°03' E 002°22'0 0.0
2018-May-22 11:59N 51°03' E 002°22'0 0.0
2018-May-22 11:29N 51°03' E 002°22'0 0.0
2018-May-22 10:44N 51°03' E 002°22'0 0.0
2018-May-22 10:29N 51°03' E 002°22'0 0.0
2018-May-22 09:50N 51°03' E 002°22'0 0.0
2018-May-22 08:41N 51°03' E 002°22'0 0.0
2018-May-22 08:29N 51°03' E 002°22'0 0.0
2018-May-22 07:59N 51°03' E 002°22'0 0.0
2018-May-22 07:26N 51°03' E 002°22'0 0.0
2018-May-22 06:53N 51°03' E 002°22'0 0.0
2018-May-22 06:29N 51°03' E 002°22'0 0.0
2018-May-22 05:59N 51°03' E 002°22'0 0.0
2018-May-22 05:11N 51°03' E 002°22'0 0.0
2018-May-22 04:59N 51°03' E 002°22'0 0.0
2018-May-22 04:29N 51°03' E 002°22'0 0.0
2018-May-22 03:59N 51°03' E 002°22'0 0.0
2018-May-22 03:29N 51°03' E 002°22'0 0.0
2018-May-22 02:59N 51°03' E 002°22'0 0.0
2018-May-22 02:29N 51°03' E 002°22'0 0.0
2018-May-22 01:59N 51°03' E 002°22'0 0.0
2018-May-22 01:29N 51°03' E 002°22'0 0.0
2018-May-22 00:58N 51°03' E 002°22'0 0.0
2018-May-22 00:23N 51°03' E 002°22'0 0.0
2018-May-21 23:59N 51°03' E 002°22'0 0.0
2018-May-21 23:29N 51°03' E 002°22'0 0.0
2018-May-21 22:59N 51°03' E 002°22'0 0.0
2018-May-21 22:28N 51°03' E 002°22'0 0.0
2018-May-21 21:59N 51°03' E 002°22'0 0.0
2018-May-21 21:23N 51°03' E 002°22'0 0.0
2018-May-21 20:59N 51°03' E 002°22'0 0.0
2018-May-21 20:26N 51°03' E 002°22'0 0.0
2018-May-21 19:58N 51°03' E 002°22'0 0.0
2018-May-21 19:28N 51°03' E 002°22'0 0.0
2018-May-21 18:58N 51°03' E 002°22'0 0.0
2018-May-21 18:28N 51°03' E 002°22'0 0.0
2018-May-21 17:59N 51°03' E 002°22'0 0.0
2018-May-21 17:29N 51°03' E 002°22'0 0.0
2018-May-21 16:59N 51°03' E 002°22'0 0.0
2018-May-21 16:29N 51°03' E 002°22'0 0.0
2018-May-21 15:58N 51°03' E 002°22'0 0.0
2018-May-21 15:28N 51°03' E 002°22'0 0.0
2018-May-21 14:58N 51°03' E 002°22'0 0.0
2018-May-21 14:20N 51°03' E 002°22'0 0.0
2018-May-21 13:58N 51°03' E 002°22'0 0.0
2018-May-21 13:07N 51°03' E 002°22'0 0.0
2018-May-21 12:47N 51°03' E 002°22'0 0.0
2018-May-21 12:20N 51°03' E 002°22'0 0.0
2018-May-21 11:58N 51°03' E 002°22'0 0.0
2018-May-21 11:28N 51°03' E 002°22'0 0.0
2018-May-21 10:43N 51°03' E 002°22'0 0.0
2018-May-21 10:29N 51°03' E 002°22'0 0.0
2018-May-21 09:58N 51°03' E 002°22'0 0.0
2018-May-21 09:20N 51°03' E 002°22'0 0.0
2018-May-21 08:52N 51°03' E 002°22'0 0.0
2018-May-21 08:28N 51°03' E 002°22'0 0.0
2018-May-21 07:58N 51°03' E 002°22'0 0.0
2018-May-21 07:28N 51°03' E 002°22'0 0.0
2018-May-21 06:52N 51°03' E 002°22'0 0.0
2018-May-21 06:28N 51°03' E 002°22'0 0.0
2018-May-21 05:58N 51°03' E 002°22'0 0.0
2018-May-21 05:28N 51°03' E 002°22'0 0.0
2018-May-21 04:59N 51°03' E 002°22'0 0.0
2018-May-21 04:22N 51°03' E 002°22'0 0.0
2018-May-21 03:58N 51°03' E 002°22'0 0.0
2018-May-21 03:28N 51°03' E 002°22'0 0.0
2018-May-21 02:59N 51°03' E 002°22'0 0.0
2018-May-21 02:13N 51°03' E 002°22'0 0.0
2018-May-21 01:55N 51°03' E 002°22'0 0.0
2018-May-21 01:07N 51°03' E 002°22'0 0.0
2018-May-21 00:58N 51°03' E 002°22'0 0.0
2018-May-21 00:28N 51°03' E 002°22'0 0.0
2018-May-20 23:58N 51°03' E 002°22'0 0.0
2018-May-20 23:28N 51°03' E 002°22'0 0.0
2018-May-20 22:50N 51°03' E 002°22'0 0.0
2018-May-20 22:28N 51°03' E 002°22'0 0.0
2018-May-20 21:58N 51°03' E 002°22'0 0.0
2018-May-20 21:28N 51°03' E 002°22'0 0.0
2018-May-20 20:58N 51°03' E 002°22'0 0.0
2018-May-20 20:28N 51°03' E 002°22'0 0.0
2018-May-20 19:58N 51°03' E 002°22'0 0.0
2018-May-20 19:25N 51°03' E 002°22'0 0.0
2018-May-20 18:58N 51°03' E 002°22'0 0.0
2018-May-20 18:28N 51°03' E 002°22'0 0.0
2018-May-20 17:49N 51°03' E 002°22'0 0.0
2018-May-20 17:28N 51°03' E 002°22'0 0.0
2018-May-20 16:58N 51°03' E 002°22'0 0.0
2018-May-20 16:28N 51°03' E 002°22'0 0.0
2018-May-20 15:58N 51°03' E 002°22'0 0.0
2018-May-20 15:28N 51°03' E 002°22'0 0.0
2018-May-20 14:58N 51°03' E 002°22'0 0.0
2018-May-20 14:25N 51°03' E 002°22'0 0.0
2018-May-20 13:58N 51°03' E 002°22'0 0.0
2018-May-20 13:28N 51°03' E 002°22'0 0.0
2018-May-20 12:46N 51°03' E 002°22'0 0.0
2018-May-20 12:19N 51°03' E 002°22'0 0.0
2018-May-20 11:58N 51°03' E 002°22'0 0.0
2018-May-20 11:28N 51°03' E 002°22'0 0.0
2018-May-20 10:52N 51°03' E 002°22'0 0.0
2018-May-20 10:29N 51°03' E 002°22'0 0.0
2018-May-20 09:58N 51°03' E 002°22'0 0.0
2018-May-20 09:28N 51°03' E 002°22'0 0.0
2018-May-20 08:58N 51°03' E 002°22'0 0.0
2018-May-20 08:22N 51°03' E 002°22'0 0.0
2018-May-20 07:58N 51°03' E 002°22'0 0.0
2018-May-20 06:37N 51°03' E 002°22'0 0.0
2018-May-20 06:28N 51°03' E 002°22'0 0.0
2018-May-20 05:40N 51°03' E 002°22'0 0.0
2018-May-20 05:28N 51°03' E 002°22'0 0.0
2018-May-20 04:55N 51°03' E 002°22'0 0.0
2018-May-20 04:28N 51°03' E 002°22'0 0.0
2018-May-20 03:58N 51°03' E 002°22'0 0.0
2018-May-20 03:28N 51°03' E 002°22'0 0.0
2018-May-20 02:43N 51°03' E 002°22'0 0.0
2018-May-20 02:28N 51°03' E 002°22'0 0.0
2018-May-20 01:43N 51°03' E 002°22'0 0.0
2018-May-20 01:28N 51°03' E 002°22'0 0.0
2018-May-19 23:55N 51°03' E 002°22'0 0.0
2018-May-19 23:25N 51°03' E 002°22'0 0.0
2018-May-19 22:58N 51°03' E 002°22'0 0.0
2018-May-19 22:25N 51°03' E 002°22'0 0.0
2018-May-19 21:58N 51°03' E 002°22'0 0.0
2018-May-19 21:28N 51°03' E 002°22'0 0.0
2018-May-19 20:52N 51°03' E 002°22'0 0.0
2018-May-19 20:28N 51°03' E 002°22'0 0.0
2018-May-19 19:58N 51°03' E 002°22'0 0.0
2018-May-19 19:25N 51°03' E 002°22'0 0.0
2018-May-19 18:58N 51°03' E 002°22'0 0.0
2018-May-19 18:25N 51°03' E 002°22'0 0.0
2018-May-19 17:58N 51°03' E 002°22'0 0.0
2018-May-19 17:10N 51°03' E 002°22'0 0.0
2018-May-19 16:58N 51°03' E 002°22'0 0.0
2018-May-19 16:22N 51°03' E 002°22'0 0.0
2018-May-19 15:40N 51°03' E 002°22'0 0.0
2018-May-19 15:07N 51°03' E 002°22'0 0.0
2018-May-19 14:58N 51°03' E 002°22'0 0.0
2018-May-19 14:25N 51°03' E 002°22'0 0.0
2018-May-19 13:58N 51°03' E 002°22'0 0.0
2018-May-19 13:25N 51°03' E 002°22'0 0.0
2018-May-19 12:40N 51°03' E 002°22'0 0.0
2018-May-19 12:19N 51°03' E 002°22'0 0.0
2018-May-19 11:46N 51°03' E 002°22'0 0.0
2018-May-19 11:04N 51°03' E 002°22'0 0.0
2018-May-19 10:46N 51°03' E 002°22'0 0.0
2018-May-19 10:28N 51°03' E 002°22'0 0.0
2018-May-19 09:52N 51°03' E 002°22'0 0.0
2018-May-19 09:28N 51°03' E 002°22'0 0.0
2018-May-19 08:58N 51°03' E 002°22'0 0.0
2018-May-19 08:25N 51°03' E 002°22'0 0.0
2018-May-19 07:58N 51°03' E 002°22'0 0.0
2018-May-19 07:28N 51°03' E 002°22'0 0.0
2018-May-19 06:01N 51°03' E 002°22'0 0.0
2018-May-19 05:46N 51°03' E 002°22'0 0.0
2018-May-19 05:25N 51°03' E 002°22'0 0.0
2018-May-19 04:58N 51°03' E 002°22'0 0.0
2018-May-19 04:22N 51°03' E 002°22'0 0.0
2018-May-19 03:58N 51°03' E 002°22'0 0.0
2018-May-19 03:25N 51°03' E 002°22'0 0.0
2018-May-19 01:52N 51°03' E 002°22'0 0.0
2018-May-19 01:28N 51°03' E 002°22'0 0.0
2018-May-19 00:49N 51°03' E 002°22'0 0.0
2018-May-19 00:16N 51°03' E 002°22'0 0.0
2018-May-18 23:46N 51°03' E 002°22'0 0.0
2018-May-18 23:28N 51°03' E 002°22'0 0.0
2018-May-18 22:55N 51°03' E 002°22'0 0.0
2018-May-18 22:22N 51°03' E 002°22'0 0.0
2018-May-18 21:46N 51°03' E 002°22'0 0.0
2018-May-18 21:07N 51°03' E 002°22'0 0.0
2018-May-18 20:58N 51°03' E 002°22'0 0.0
2018-May-18 20:28N 51°03' E 002°22'0 0.0
2018-May-18 19:52N 51°03' E 002°22'0 0.0
2018-May-18 19:16N 51°03' E 002°22'0 0.0
2018-May-18 18:58N 51°03' E 002°22'0 0.0
2018-May-18 18:25N 51°03' E 002°22'0 0.0
2018-May-18 17:07N 51°03' E 002°22'0 0.0
2018-May-18 16:46N 51°03' E 002°22'0 0.0
2018-May-18 16:22N 51°03' E 002°22'0 0.0
2018-May-18 15:58N 51°03' E 002°22'0 0.0
2018-May-18 15:28N 51°03' E 002°22'0 0.0
2018-May-18 14:58N 51°03' E 002°22'0 0.0
2018-May-18 14:28N 51°03' E 002°22'0 0.0
2018-May-18 13:40N 51°03' E 002°22'0 0.0
2018-May-18 13:22N 51°03' E 002°22'0 0.0
2018-May-18 12:43N 51°03' E 002°22'0 0.0
2018-May-18 12:25N 51°03' E 002°22'0 0.0
2018-May-18 11:49N 51°03' E 002°22'0 0.0
2018-May-18 11:22N 51°03' E 002°22'0 0.0
2018-May-18 10:52N 51°03' E 002°22'0 0.0
2018-May-18 10:28N 51°03' E 002°22'0 0.0
2018-May-18 09:52N 51°03' E 002°22'0 0.0
2018-May-18 09:01N 51°03' E 002°22'0 0.0
2018-May-18 08:58N 51°03' E 002°22'0 0.0
2018-May-18 08:28N 51°03' E 002°22'0 0.0
2018-May-18 07:58N 51°03' E 002°22'0 0.0
2018-May-18 07:28N 51°03' E 002°22'0 0.0
2018-May-18 06:46N 51°03' E 002°22'0 0.0
2018-May-18 06:10N 51°03' E 002°22'0 0.0
2018-May-18 05:58N 51°03' E 002°22'0 0.0
2018-May-18 05:28N 51°03' E 002°22'0 0.0
2018-May-18 04:58N 51°03' E 002°22'0 0.0
2018-May-18 04:22N 51°03' E 002°22'0 0.0
2018-May-18 03:52N 51°03' E 002°22'0 0.0
2018-May-18 03:22N 51°03' E 002°22'0 0.0
2018-May-18 02:58N 51°03' E 002°22'0 0.0
2018-May-18 02:28N 51°03' E 002°22'0 0.0
2018-May-18 01:58N 51°03' E 002°22'0 0.0
2018-May-18 01:22N 51°03' E 002°22'0 0.0
2018-May-18 00:52N 51°03' E 002°22'0 0.0
2018-May-18 00:22N 51°03' E 002°22'0 0.0
2018-May-17 23:52N 51°03' E 002°22'0 0.0
2018-May-17 23:28N 51°03' E 002°22'0 0.0
2018-May-17 22:58N 51°03' E 002°22'0 0.0
2018-May-17 22:22N 51°03' E 002°22'0 0.0
2018-May-17 21:58N 51°03' E 002°22'0 0.0
2018-May-17 21:28N 51°03' E 002°22'0 0.0
2018-May-17 20:22N 51°03' E 002°22'0 0.0
2018-May-17 19:58N 51°03' E 002°22'0 0.0
2018-May-17 19:25N 51°03' E 002°22'0 0.0
2018-May-17 18:46N 51°03' E 002°22'0 0.0
2018-May-17 18:22N 51°03' E 002°22'0 0.0
2018-May-17 17:58N 51°03' E 002°22'0 0.0
2018-May-17 17:22N 51°03' E 002°22'0 0.0
2018-May-17 16:58N 51°03' E 002°22'0 0.0
2018-May-17 16:28N 51°03' E 002°22'0 0.0
2018-May-17 15:58N 51°03' E 002°22'0 0.0
2018-May-17 15:28N 51°03' E 002°22'0 0.0
2018-May-17 14:58N 51°03' E 002°22'0 0.0
2018-May-17 14:25N 51°03' E 002°22'0 0.0
2018-May-17 13:55N 51°03' E 002°22'0 0.0
2018-May-17 13:19N 51°03' E 002°22'0 0.0
2018-May-17 12:58N 51°03' E 002°22'0 0.0
2018-May-17 12:22N 51°03' E 002°22'0 0.0
2018-May-17 11:58N 51°03' E 002°22'0 0.0
2018-May-17 11:22N 51°03' E 002°22'0 0.0
2018-May-17 10:46N 51°03' E 002°22'0 0.0
2018-May-17 10:25N 51°03' E 002°22'0 0.0
2018-May-17 09:52N 51°03' E 002°22'0 0.0
2018-May-17 09:19N 51°03' E 002°22'0 0.0
2018-May-17 08:58N 51°03' E 002°22'0 0.0
2018-May-17 08:19N 51°03' E 002°22'0 0.0
2018-May-17 07:55N 51°03' E 002°22'0 0.0
2018-May-17 07:28N 51°03' E 002°22'0 0.0
2018-May-17 06:58N 51°03' E 002°22'0 0.0
2018-May-17 06:28N 51°03' E 002°22'0 0.0
2018-May-17 05:58N 51°03' E 002°22'0 0.0
2018-May-17 05:25N 51°03' E 002°22'0 0.0
2018-May-17 04:52N 51°03' E 002°22'0 0.0
2018-May-17 04:28N 51°03' E 002°22'0 0.0
2018-May-17 03:58N 51°03' E 002°22'0 0.0
2018-May-17 03:22N 51°03' E 002°22'0 0.0
2018-May-17 02:58N 51°03' E 002°22'0 0.0
2018-May-17 02:25N 51°03' E 002°22'0 0.0
2018-May-17 01:58N 51°03' E 002°22'0 0.0
2018-May-17 01:28N 51°03' E 002°22'0 0.0
2018-May-17 00:58N 51°03' E 002°22'0 0.0
2018-May-17 00:28N 51°03' E 002°22'0 0.0
2018-May-16 23:55N 51°03' E 002°22'0 0.0
2018-May-16 23:25N 51°03' E 002°22'0 0.0
2018-May-16 22:58N 51°03' E 002°22'0 0.0
2018-May-16 22:28N 51°03' E 002°22'0 0.0
2018-May-16 21:55N 51°03' E 002°22'0 0.0
2018-May-16 21:19N 51°03' E 002°22'0 0.0
2018-May-16 20:58N 51°03' E 002°22'0 0.0
2018-May-16 20:19N 51°03' E 002°22'0 0.0
2018-May-16 19:52N 51°03' E 002°22'0 0.0
2018-May-16 19:28N 51°03' E 002°22'0 0.0
2018-May-16 18:55N 51°03' E 002°22'0 0.0
2018-May-16 18:28N 51°03' E 002°22'0 0.0
2018-May-16 17:49N 51°03' E 002°22'0 0.0
2018-May-16 17:25N 51°03' E 002°22'0 0.0
2018-May-16 16:55N 51°03' E 002°22'0 0.0
2018-May-16 16:28N 51°03' E 002°22'0 0.0
2018-May-16 15:58N 51°03' E 002°22'0 0.0
2018-May-16 15:16N 51°03' E 002°22'0 0.0
2018-May-16 14:58N 51°03' E 002°22'0 0.0
2018-May-16 14:28N 51°03' E 002°22'0 0.0
2018-May-16 13:52N 51°03' E 002°22'0 0.0
2018-May-16 13:22N 51°03' E 002°22'0 0.0
2018-May-16 12:58N 51°03' E 002°22'0 0.0
2018-May-16 12:28N 51°03' E 002°22'0 0.0
2018-May-16 11:58N 51°03' E 002°22'0 0.0
2018-May-16 11:25N 51°03' E 002°22'0 0.0
2018-May-16 10:58N 51°03' E 002°22'0 0.0
2018-May-16 10:28N 51°03' E 002°22'0 0.0
2018-May-16 09:58N 51°03' E 002°22'0 0.0
2018-May-16 09:25N 51°03' E 002°22'0 0.0
2018-May-16 08:52N 51°03' E 002°22'0 0.0
2018-May-16 08:16N 51°03' E 002°22'0 0.0
2018-May-16 07:49N 51°03' E 002°22'0 0.0
2018-May-16 07:28N 51°03' E 002°22'0 0.0
2018-May-16 06:58N 51°03' E 002°22'0 0.0
2018-May-16 06:28N 51°03' E 002°22'0 0.0
2018-May-16 05:52N 51°03' E 002°22'0 0.0
2018-May-16 05:28N 51°03' E 002°22'0 0.0
2018-May-16 04:55N 51°03' E 002°22'0 0.0
2018-May-16 04:28N 51°03' E 002°22'0 0.0
2018-May-16 03:58N 51°03' E 002°22'0 0.0
2018-May-16 03:25N 51°03' E 002°22'0 0.0
2018-May-16 02:58N 51°03' E 002°22'0 0.0
2018-May-16 02:28N 51°03' E 002°22'0 0.0
2018-May-16 01:58N 51°03' E 002°22'0 0.0
2018-May-16 01:25N 51°03' E 002°22'0 0.0
2018-May-16 00:52N 51°03' E 002°22'0 0.0
2018-May-16 00:28N 51°03' E 002°22'0 0.0
2018-May-15 23:58N 51°03' E 002°22'0 0.0
2018-May-15 23:28N 51°03' E 002°22'0 0.0
2018-May-15 22:59N 51°03' E 002°22'0 0.0
2018-May-15 22:28N 51°03' E 002°22'0 0.0
2018-May-15 21:46N 51°03' E 002°22'0 0.0
2018-May-15 21:28N 51°03' E 002°22'0 0.0
2018-May-15 20:58N 51°03' E 002°22'0 0.0
2018-May-15 20:28N 51°03' E 002°22'0 0.0
2018-May-15 19:58N 51°03' E 002°22'0 0.0
2018-May-15 19:22N 51°03' E 002°22'0 0.0
2018-May-15 18:58N 51°03' E 002°22'0 0.0
2018-May-15 18:28N 51°03' E 002°22'0 0.0
2018-May-15 17:58N 51°03' E 002°22'0 0.0
2018-May-15 17:28N 51°03' E 002°22'0 0.0
2018-May-15 16:58N 51°03' E 002°22'0 0.0
2018-May-15 16:28N 51°03' E 002°22'0 0.0
2018-May-15 15:58N 51°03' E 002°22'0 0.0
2018-May-15 15:28N 51°03' E 002°22'0 0.0
2018-May-15 14:58N 51°03' E 002°22'0 0.0
2018-May-15 14:22N 51°03' E 002°22'0 0.0
2018-May-15 13:58N 51°03' E 002°22'0 0.0
2018-May-15 13:28N 51°03' E 002°22'0 0.0
2018-May-15 12:58N 51°03' E 002°22'0 0.0
2018-May-15 12:25N 51°03' E 002°22'0 0.0
2018-May-15 11:46N 51°03' E 002°22'0 0.0
2018-May-15 11:25N 51°03' E 002°22'0 0.0
2018-May-15 10:46N 51°03' E 002°22'0 0.0
2018-May-15 10:22N 51°03' E 002°22'0 0.0
2018-May-15 09:58N 51°03' E 002°22'0 0.0
2018-May-15 09:28N 51°03' E 002°22'0 0.0
2018-May-15 08:52N 51°03' E 002°22'0 0.0
2018-May-15 08:10N 51°03' E 002°22'0 0.0
2018-May-15 07:58N 51°03' E 002°22'0 0.0
2018-May-15 07:16N 51°03' E 002°22'0 0.0
2018-May-15 06:58N 51°03' E 002°22'0 0.0
2018-May-15 06:28N 51°03' E 002°22'0 0.0
2018-May-15 05:58N 51°03' E 002°22'0 0.0
2018-May-15 05:28N 51°03' E 002°22'0 0.0
2018-May-15 04:58N 51°03' E 002°22'0 0.0
2018-May-15 04:22N 51°03' E 002°22'0 0.0
2018-May-15 03:46N 51°03' E 002°22'0 0.0
2018-May-15 03:28N 51°03' E 002°22'0 0.0
2018-May-15 02:52N 51°03' E 002°22'0 0.0
2018-May-15 02:28N 51°03' E 002°22'0 0.0
2018-May-15 01:58N 51°03' E 002°22'0 0.0
2018-May-15 01:25N 51°03' E 002°22'0 0.0
2018-May-15 00:58N 51°03' E 002°22'0 0.0
2018-May-15 00:28N 51°03' E 002°22'0 0.0
2018-May-14 23:58N 51°03' E 002°22'0 0.0
2018-May-14 23:16N 51°03' E 002°22'0 0.0
2018-May-14 22:58N 51°03' E 002°22'0 0.0
2018-May-14 22:25N 51°03' E 002°22'0 0.0
2018-May-14 21:58N 51°03' E 002°22'0 0.0
2018-May-14 21:28N 51°03' E 002°22'0 0.0
2018-May-14 20:55N 51°03' E 002°22'0 0.0
2018-May-14 20:19N 51°03' E 002°22'0 0.0
2018-May-14 19:55N 51°03' E 002°22'0 0.0
2018-May-14 19:19N 51°03' E 002°22'0 0.0
2018-May-14 18:58N 51°03' E 002°22'0 0.0
2018-May-14 18:28N 51°03' E 002°22'0 0.0
2018-May-14 17:55N 51°03' E 002°22'0 0.0
2018-May-14 17:16N 51°03' E 002°22'0 0.0
2018-May-14 16:58N 51°03' E 002°22'0 0.0
2018-May-14 16:22N 51°03' E 002°22'0 0.0
2018-May-14 15:52N 51°03' E 002°22'  
Track history (hours):
 
Tides and Currents Weather Stations Pressure Air Temp Water Temp Dewpoint Dewpoint Depression Visibility Wind Speed Wind Dir Waves Ship Positions

Pride Of Kent

Operator: P & O Ferries

Last reported at 2018-May-24 15:29 UTC. Time now 2018-May-24 15:46 UTC.
Position N 51°01' E 001°30'.

Length 180 m; draft 6 m.

Type: Passenger vessel. MMSI: 232009000.

Date/timePositionNaut miles runAvg speedWind from/ knotsBaromVisibWave heightAir tempDewpointWater temp
2018-May-24 15:29N 51°01' E 001°30'9 6.4
2018-May-24 14:04N 51°07' E 001°20'0 1.1
2018-May-24 13:58N 51°07' E 001°20'715.5
2018-May-24 13:30N 51°05' E 001°30'1 0.2
2018-May-24 09:00N 51°04' E 001°30'918.0
2018-May-24 08:31N 50°59' E 001°42'6 9.1
2018-May-24 07:53N 50°58' E 001°51'0 0.0
2018-May-24 07:14N 50°58' E 001°51'0 0.0
2018-May-24 06:59N 50°58' E 001°51'612.8
2018-May-24 06:30N 50°58' E 001°41'1019.0
2018-May-24 06:01N 51°03' E 001°28'7 6.2
2018-May-24 04:54N 51°07' E 001°20'0 0.1
2018-May-24 04:22N 51°07' E 001°20'3 8.5
2018-May-24 04:01N 51°07' E 001°25'918.1
2018-May-24 03:30N 51°01' E 001°36'917.4
2018-May-24 03:00N 50°58' E 001°50'1 1.9
2018-May-24 02:30N 50°58' E 001°51'0 0.0
2018-May-24 01:29N 50°58' E 001°51'5 9.8
2018-May-24 01:00N 50°58' E 001°44'918.1
2018-May-24 00:31N 51°03' E 001°31'8 1.7
2018-May-23 19:35N 51°07' E 001°20'1 5.0
2018-May-23 19:22N 51°07' E 001°22'617.7
2018-May-23 19:00N 51°04' E 001°31'918.5
2018-May-23 18:30N 50°59' E 001°43'5 1.4
2018-May-23 14:58N 50°58' E 001°51'0 0.0
2018-May-23 14:28N 50°58' E 001°51'0 0.0
2018-May-23 12:10N 50°58' E 001°51'0 0.0
2018-May-23 11:28N 50°58' E 001°51'0 0.0
2018-May-23 10:58N 50°58' E 001°51'0 0.0
2018-May-23 09:01N 50°58' E 001°51'0 0.0
2018-May-23 08:49N 50°58' E 001°51'0 0.0
2018-May-23 08:22N 50°58' E 001°51'0 0.0
2018-May-23 06:04N 50°58' E 001°51'0 0.0
2018-May-23 05:34N 50°58' E 001°51'0 0.0
2018-May-23 03:52N 50°58' E 001°51'0 0.0
2018-May-23 03:22N 50°58' E 001°51'0 0.0
2018-May-23 02:51N 50°58' E 001°51'410.2
2018-May-23 02:30N 50°58' E 001°45'510.6
2018-May-23 02:00N 51°03' E 001°45'4 7.9
2018-May-23 01:30N 51°01' E 001°40'714.2
2018-May-23 01:00N 51°01' E 001°29'713.8
2018-May-23 00:30N 51°03' E 001°19'0 0.8
2018-May-23 00:00N 51°04' E 001°19'1 2.0
2018-May-22 23:27N 51°05' E 001°20'1 1.8
2018-May-22 23:00N 51°05' E 001°20'713.7
2018-May-22 22:30N 51°08' E 001°31'713.4
2018-May-22 22:01N 51°06' E 001°41'5 9.2
2018-May-22 21:29N 51°03' E 001°47'0 0.0
2018-May-22 20:56N 51°03' E 001°47'0 0.1
2018-May-22 20:29N 51°03' E 001°47'1 1.6
2018-May-22 20:00N 51°04' E 001°47'4 7.5
2018-May-22 19:30N 51°03' E 001°53'4 7.2
2018-May-22 19:00N 51°03' E 001°58'3 6.4
2018-May-22 18:29N 51°04' E 002°04'0 0.1
2018-May-22 17:59N 51°04' E 002°03'0 0.0
2018-May-22 17:29N 51°04' E 002°03'0 0.0
2018-May-22 16:59N 51°04' E 002°03'0 0.1
2018-May-22 16:30N 51°04' E 002°04'3 6.5
2018-May-22 16:00N 51°03' E 002°09'4 7.5
2018-May-22 15:30N 51°04' E 002°15'2 4.6
2018-May-22 15:01N 51°04' E 002°18'2 2.8
2018-May-22 14:27N 51°03' E 002°20'0 0.1
2018-May-22 14:00N 51°03' E 002°20'1 1.5
2018-May-22 13:29N 51°03' E 002°22'0 0.2
2018-May-22 12:56N 51°03' E 002°22'0 0.0
2018-May-22 12:29N 51°03' E 002°22'0 0.0
2018-May-22 11:59N 51°03' E 002°22'0 0.0
2018-May-22 11:29N 51°03' E 002°22'0 0.0
2018-May-22 10:44N 51°03' E 002°22'0 0.0
2018-May-22 10:29N 51°03' E 002°22'0 0.0
2018-May-22 09:50N 51°03' E 002°22'0 0.0
2018-May-22 08:41N 51°03' E 002°22'0 0.0
2018-May-22 08:29N 51°03' E 002°22'0 0.0
2018-May-22 07:59N 51°03' E 002°22'0 0.0
2018-May-22 07:26N 51°03' E 002°22'0 0.0
2018-May-22 06:53N 51°03' E 002°22'0 0.0
2018-May-22 06:29N 51°03' E 002°22'0 0.0
2018-May-22 05:59N 51°03' E 002°22'0 0.0
2018-May-22 05:11N 51°03' E 002°22'0 0.0
2018-May-22 04:59N 51°03' E 002°22'0 0.0
2018-May-22 04:29N 51°03' E 002°22'0 0.0
2018-May-22 03:59N 51°03' E 002°22'0 0.0
2018-May-22 03:29N 51°03' E 002°22'0 0.0
2018-May-22 02:59N 51°03' E 002°22'0 0.0
2018-May-22 02:29N 51°03' E 002°22'0 0.0
2018-May-22 01:59N 51°03' E 002°22'0 0.0
2018-May-22 01:29N 51°03' E 002°22'0 0.0
2018-May-22 00:58N 51°03' E 002°22'0 0.0
2018-May-22 00:23N 51°03' E 002°22'0 0.0
2018-May-21 23:59N 51°03' E 002°22'0 0.0
2018-May-21 23:29N 51°03' E 002°22'0 0.0
2018-May-21 22:59N 51°03' E 002°22'0 0.0
2018-May-21 22:28N 51°03' E 002°22'0 0.0
2018-May-21 21:59N 51°03' E 002°22'0 0.0
2018-May-21 21:23N 51°03' E 002°22'0 0.0
2018-May-21 20:59N 51°03' E 002°22'0 0.0
2018-May-21 20:26N 51°03' E 002°22'0 0.0
2018-May-21 19:58N 51°03' E 002°22'0 0.0
2018-May-21 19:28N 51°03' E 002°22'0 0.0
2018-May-21 18:58N 51°03' E 002°22'0 0.0
2018-May-21 18:28N 51°03' E 002°22'0 0.0
2018-May-21 17:59N 51°03' E 002°22'0 0.0
2018-May-21 17:29N 51°03' E 002°22'0 0.0
2018-May-21 16:59N 51°03' E 002°22'0 0.0
2018-May-21 16:29N 51°03' E 002°22'0 0.0
2018-May-21 15:58N 51°03' E 002°22'0 0.0
2018-May-21 15:28N 51°03' E 002°22'0 0.0
2018-May-21 14:58N 51°03' E 002°22'0 0.0
2018-May-21 14:20N 51°03' E 002°22'0 0.0
2018-May-21 13:58N 51°03' E 002°22'0 0.0
2018-May-21 13:07N 51°03' E 002°22'0 0.0
2018-May-21 12:47N 51°03' E 002°22'0 0.0
2018-May-21 12:20N 51°03' E 002°22'0 0.0
2018-May-21 11:58N 51°03' E 002°22'0 0.0
2018-May-21 11:28N 51°03' E 002°22'0 0.0
2018-May-21 10:43N 51°03' E 002°22'0 0.0
2018-May-21 10:29N 51°03' E 002°22'0 0.0
2018-May-21 09:58N 51°03' E 002°22'0 0.0
2018-May-21 09:20N 51°03' E 002°22'0 0.0
2018-May-21 08:52N 51°03' E 002°22'0 0.0
2018-May-21 08:28N 51°03' E 002°22'0 0.0
2018-May-21 07:58N 51°03' E 002°22'0 0.0
2018-May-21 07:28N 51°03' E 002°22'0 0.0
2018-May-21 06:52N 51°03' E 002°22'0 0.0
2018-May-21 06:28N 51°03' E 002°22'0 0.0
2018-May-21 05:58N 51°03' E 002°22'0 0.0
2018-May-21 05:28N 51°03' E 002°22'0 0.0
2018-May-21 04:59N 51°03' E 002°22'0 0.0
2018-May-21 04:22N 51°03' E 002°22'0 0.0
2018-May-21 03:58N 51°03' E 002°22'0 0.0
2018-May-21 03:28N 51°03' E 002°22'0 0.0
2018-May-21 02:59N 51°03' E 002°22'0 0.0
2018-May-21 02:13N 51°03' E 002°22'0 0.0
2018-May-21 01:55N 51°03' E 002°22'0 0.0
2018-May-21 01:07N 51°03' E 002°22'0 0.0
2018-May-21 00:58N 51°03' E 002°22'0 0.0
2018-May-21 00:28N 51°03' E 002°22'0 0.0
2018-May-20 23:58N 51°03' E 002°22'0 0.0
2018-May-20 23:28N 51°03' E 002°22'0 0.0
2018-May-20 22:50N 51°03' E 002°22'0 0.0
2018-May-20 22:28N 51°03' E 002°22'0 0.0
2018-May-20 21:58N 51°03' E 002°22'0 0.0
2018-May-20 21:28N 51°03' E 002°22'0 0.0
2018-May-20 20:58N 51°03' E 002°22'0 0.0
2018-May-20 20:28N 51°03' E 002°22'0 0.0
2018-May-20 19:58N 51°03' E 002°22'0 0.0
2018-May-20 19:25N 51°03' E 002°22'0 0.0
2018-May-20 18:58N 51°03' E 002°22'0 0.0
2018-May-20 18:28N 51°03' E 002°22'0 0.0
2018-May-20 17:49N 51°03' E 002°22'0 0.0
2018-May-20 17:28N 51°03' E 002°22'0 0.0
2018-May-20 16:58N 51°03' E 002°22'0 0.0
2018-May-20 16:28N 51°03' E 002°22'0 0.0
2018-May-20 15:58N 51°03' E 002°22'0 0.0
2018-May-20 15:28N 51°03' E 002°22'0 0.0
2018-May-20 14:58N 51°03' E 002°22'0 0.0
2018-May-20 14:25N 51°03' E 002°22'0 0.0
2018-May-20 13:58N 51°03' E 002°22'0 0.0
2018-May-20 13:28N 51°03' E 002°22'0 0.0
2018-May-20 12:46N 51°03' E 002°22'0 0.0
2018-May-20 12:19N 51°03' E 002°22'0 0.0
2018-May-20 11:58N 51°03' E 002°22'0 0.0
2018-May-20 11:28N 51°03' E 002°22'0 0.0
2018-May-20 10:52N 51°03' E 002°22'0 0.0
2018-May-20 10:29N 51°03' E 002°22'0 0.0
2018-May-20 09:58N 51°03' E 002°22'0 0.0
2018-May-20 09:28N 51°03' E 002°22'0 0.0
2018-May-20 08:58N 51°03' E 002°22'0 0.0
2018-May-20 08:22N 51°03' E 002°22'0 0.0
2018-May-20 07:58N 51°03' E 002°22'0 0.0
2018-May-20 06:37N 51°03' E 002°22'0 0.0
2018-May-20 06:28N 51°03' E 002°22'0 0.0
2018-May-20 05:40N 51°03' E 002°22'0 0.0
2018-May-20 05:28N 51°03' E 002°22'0 0.0
2018-May-20 04:55N 51°03' E 002°22'0 0.0
2018-May-20 04:28N 51°03' E 002°22'0 0.0
2018-May-20 03:58N 51°03' E 002°22'0 0.0
2018-May-20 03:28N 51°03' E 002°22'0 0.0
2018-May-20 02:43N 51°03' E 002°22'0 0.0
2018-May-20 02:28N 51°03' E 002°22'0 0.0
2018-May-20 01:43N 51°03' E 002°22'0 0.0
2018-May-20 01:28N 51°03' E 002°22'0 0.0
2018-May-19 23:55N 51°03' E 002°22'0 0.0
2018-May-19 23:25N 51°03' E 002°22'0 0.0
2018-May-19 22:58N 51°03' E 002°22'0 0.0
2018-May-19 22:25N 51°03' E 002°22'0 0.0
2018-May-19 21:58N 51°03' E 002°22'0 0.0
2018-May-19 21:28N 51°03' E 002°22'0 0.0
2018-May-19 20:52N 51°03' E 002°22'0 0.0
2018-May-19 20:28N 51°03' E 002°22'0 0.0
2018-May-19 19:58N 51°03' E 002°22'0 0.0
2018-May-19 19:25N 51°03' E 002°22'0 0.0
2018-May-19 18:58N 51°03' E 002°22'0 0.0
2018-May-19 18:25N 51°03' E 002°22'0 0.0
2018-May-19 17:58N 51°03' E 002°22'0 0.0
2018-May-19 17:10N 51°03' E 002°22'0 0.0
2018-May-19 16:58N 51°03' E 002°22'0 0.0
2018-May-19 16:22N 51°03' E 002°22'0 0.0
2018-May-19 15:40N 51°03' E 002°22'0 0.0
2018-May-19 15:07N 51°03' E 002°22'0 0.0
2018-May-19 14:58N 51°03' E 002°22'0 0.0
2018-May-19 14:25N 51°03' E 002°22'0 0.0
2018-May-19 13:58N 51°03' E 002°22'0 0.0
2018-May-19 13:25N 51°03' E 002°22'0 0.0
2018-May-19 12:40N 51°03' E 002°22'0 0.0
2018-May-19 12:19N 51°03' E 002°22'0 0.0
2018-May-19 11:46N 51°03' E 002°22'0 0.0
2018-May-19 11:04N 51°03' E 002°22'0 0.0
2018-May-19 10:46N 51°03' E 002°22'0 0.0
2018-May-19 10:28N 51°03' E 002°22'0 0.0
2018-May-19 09:52N 51°03' E 002°22'0 0.0
2018-May-19 09:28N 51°03' E 002°22'0 0.0
2018-May-19 08:58N 51°03' E 002°22'0 0.0
2018-May-19 08:25N 51°03' E 002°22'0 0.0
2018-May-19 07:58N 51°03' E 002°22'0 0.0
2018-May-19 07:28N 51°03' E 002°22'0 0.0
2018-May-19 06:01N 51°03' E 002°22'0 0.0
2018-May-19 05:46N 51°03' E 002°22'0 0.0
2018-May-19 05:25N 51°03' E 002°22'0 0.0
2018-May-19 04:58N 51°03' E 002°22'0 0.0
2018-May-19 04:22N 51°03' E 002°22'0 0.0
2018-May-19 03:58N 51°03' E 002°22'0 0.0
2018-May-19 03:25N 51°03' E 002°22'0 0.0
2018-May-19 01:52N 51°03' E 002°22'0 0.0
2018-May-19 01:28N 51°03' E 002°22'0 0.0
2018-May-19 00:49N 51°03' E 002°22'0 0.0
2018-May-19 00:16N 51°03' E 002°22'0 0.0
2018-May-18 23:46N 51°03' E 002°22'0 0.0
2018-May-18 23:28N 51°03' E 002°22'0 0.0
2018-May-18 22:55N 51°03' E 002°22'0 0.0
2018-May-18 22:22N 51°03' E 002°22'0 0.0
2018-May-18 21:46N 51°03' E 002°22'0 0.0
2018-May-18 21:07N 51°03' E 002°22'0 0.0
2018-May-18 20:58N 51°03' E 002°22'0 0.0
2018-May-18 20:28N 51°03' E 002°22'0 0.0
2018-May-18 19:52N 51°03' E 002°22'0 0.0
2018-May-18 19:16N 51°03' E 002°22'0 0.0
2018-May-18 18:58N 51°03' E 002°22'0 0.0
2018-May-18 18:25N 51°03' E 002°22'0 0.0
2018-May-18 17:07N 51°03' E 002°22'0 0.0
2018-May-18 16:46N 51°03' E 002°22'0 0.0
2018-May-18 16:22N 51°03' E 002°22'0 0.0
2018-May-18 15:58N 51°03' E 002°22'0 0.0
2018-May-18 15:28N 51°03' E 002°22'0 0.0
2018-May-18 14:58N 51°03' E 002°22'0 0.0
2018-May-18 14:28N 51°03' E 002°22'0 0.0
2018-May-18 13:40N 51°03' E 002°22'0 0.0
2018-May-18 13:22N 51°03' E 002°22'0 0.0
2018-May-18 12:43N 51°03' E 002°22'0 0.0
2018-May-18 12:25N 51°03' E 002°22'0 0.0
2018-May-18 11:49N 51°03' E 002°22'0 0.0
2018-May-18 11:22N 51°03' E 002°22'0 0.0
2018-May-18 10:52N 51°03' E 002°22'0 0.0
2018-May-18 10:28N 51°03' E 002°22'0 0.0
2018-May-18 09:52N 51°03' E 002°22'0 0.0
2018-May-18 09:01N 51°03' E 002°22'0 0.0
2018-May-18 08:58N 51°03' E 002°22'0 0.0
2018-May-18 08:28N 51°03' E 002°22'0 0.0
2018-May-18 07:58N 51°03' E 002°22'0 0.0
2018-May-18 07:28N 51°03' E 002°22'0 0.0
2018-May-18 06:46N 51°03' E 002°22'0 0.0
2018-May-18 06:10N 51°03' E 002°22'0 0.0
2018-May-18 05:58N 51°03' E 002°22'0 0.0
2018-May-18 05:28N 51°03' E 002°22'0 0.0
2018-May-18 04:58N 51°03' E 002°22'0 0.0
2018-May-18 04:22N 51°03' E 002°22'0 0.0
2018-May-18 03:52N 51°03' E 002°22'0 0.0
2018-May-18 03:22N 51°03' E 002°22'0 0.0
2018-May-18 02:58N 51°03' E 002°22'0 0.0
2018-May-18 02:28N 51°03' E 002°22'0 0.0
2018-May-18 01:58N 51°03' E 002°22'0 0.0
2018-May-18 01:22N 51°03' E 002°22'0 0.0
2018-May-18 00:52N 51°03' E 002°22'0 0.0
2018-May-18 00:22N 51°03' E 002°22'0 0.0
2018-May-17 23:52N 51°03' E 002°22'0 0.0
2018-May-17 23:28N 51°03' E 002°22'0 0.0
2018-May-17 22:58N 51°03' E 002°22'0 0.0
2018-May-17 22:22N 51°03' E 002°22'0 0.0
2018-May-17 21:58N 51°03' E 002°22'0 0.0
2018-May-17 21:28N 51°03' E 002°22'0 0.0
2018-May-17 20:22N 51°03' E 002°22'0 0.0
2018-May-17 19:58N 51°03' E 002°22'0 0.0
2018-May-17 19:25N 51°03' E 002°22'0 0.0
2018-May-17 18:46N 51°03' E 002°22'0 0.0
2018-May-17 18:22N 51°03' E 002°22'0 0.0
2018-May-17 17:58N 51°03' E 002°22'0 0.0
2018-May-17 17:22N 51°03' E 002°22'0 0.0
2018-May-17 16:58N 51°03' E 002°22'0 0.0
2018-May-17 16:28N 51°03' E 002°22'0 0.0
2018-May-17 15:58N 51°03' E 002°22'0 0.0
2018-May-17 15:28N 51°03' E 002°22'0 0.0
2018-May-17 14:58N 51°03' E 002°22'0 0.0
2018-May-17 14:25N 51°03' E 002°22'0 0.0
2018-May-17 13:55N 51°03' E 002°22'0 0.0
2018-May-17 13:19N 51°03' E 002°22'0 0.0
2018-May-17 12:58N 51°03' E 002°22'0 0.0
2018-May-17 12:22N 51°03' E 002°22'0 0.0
2018-May-17 11:58N 51°03' E 002°22'0 0.0
2018-May-17 11:22N 51°03' E 002°22'0 0.0
2018-May-17 10:46N 51°03' E 002°22'0 0.0
2018-May-17 10:25N 51°03' E 002°22'0 0.0
2018-May-17 09:52N 51°03' E 002°22'0 0.0
2018-May-17 09:19N 51°03' E 002°22'0 0.0
2018-May-17 08:58N 51°03' E 002°22'0 0.0
2018-May-17 08:19N 51°03' E 002°22'0 0.0
2018-May-17 07:55N 51°03' E 002°22'0 0.0
2018-May-17 07:28N 51°03' E 002°22'0 0.0
2018-May-17 06:58N 51°03' E 002°22'0 0.0
2018-May-17 06:28N 51°03' E 002°22'0 0.0
2018-May-17 05:58N 51°03' E 002°22'0 0.0
2018-May-17 05:25N 51°03' E 002°22'0 0.0
2018-May-17 04:52N 51°03' E 002°22'0 0.0
2018-May-17 04:28N 51°03' E 002°22'0 0.0
2018-May-17 03:58N 51°03' E 002°22'0 0.0
2018-May-17 03:22N 51°03' E 002°22'0 0.0
2018-May-17 02:58N 51°03' E 002°22'0 0.0
2018-May-17 02:25N 51°03' E 002°22'0 0.0
2018-May-17 01:58N 51°03' E 002°22'0 0.0
2018-May-17 01:28N 51°03' E 002°22'0 0.0
2018-May-17 00:58N 51°03' E 002°22'0 0.0
2018-May-17 00:28N 51°03' E 002°22'0 0.0
2018-May-16 23:55N 51°03' E 002°22'0 0.0
2018-May-16 23:25N 51°03' E 002°22'0 0.0
2018-May-16 22:58N 51°03' E 002°22'0 0.0
2018-May-16 22:28N 51°03' E 002°22'0 0.0
2018-May-16 21:55N 51°03' E 002°22'0 0.0
2018-May-16 21:19N 51°03' E 002°22'0 0.0
2018-May-16 20:58N 51°03' E 002°22'0 0.0
2018-May-16 20:19N 51°03' E 002°22'0 0.0
2018-May-16 19:52N 51°03' E 002°22'0 0.0
2018-May-16 19:28N 51°03' E 002°22'0 0.0
2018-May-16 18:55N 51°03' E 002°22'0 0.0
2018-May-16 18:28N 51°03' E 002°22'0 0.0
2018-May-16 17:49N 51°03' E 002°22'0 0.0
2018-May-16 17:25N 51°03' E 002°22'0 0.0
2018-May-16 16:55N 51°03' E 002°22'0 0.0
2018-May-16 16:28N 51°03' E 002°22'0 0.0
2018-May-16 15:58N 51°03' E 002°22'0 0.0
2018-May-16 15:16N 51°03' E 002°22'0 0.0
2018-May-16 14:58N 51°03' E 002°22'0 0.0
2018-May-16 14:28N 51°03' E 002°22'0 0.0
2018-May-16 13:52N 51°03' E 002°22'0 0.0
2018-May-16 13:22N 51°03' E 002°22'0 0.0
2018-May-16 12:58N 51°03' E 002°22'0 0.0
2018-May-16 12:28N 51°03' E 002°22'0 0.0
2018-May-16 11:58N 51°03' E 002°22'0 0.0
2018-May-16 11:25N 51°03' E 002°22'0 0.0
2018-May-16 10:58N 51°03' E 002°22'0 0.0
2018-May-16 10:28N 51°03' E 002°22'0 0.0
2018-May-16 09:58N 51°03' E 002°22'0 0.0
2018-May-16 09:25N 51°03' E 002°22'0 0.0
2018-May-16 08:52N 51°03' E 002°22'0 0.0
2018-May-16 08:16N 51°03' E 002°22'0 0.0
2018-May-16 07:49N 51°03' E 002°22'0 0.0
2018-May-16 07:28N 51°03' E 002°22'0 0.0
2018-May-16 06:58N 51°03' E 002°22'0 0.0
2018-May-16 06:28N 51°03' E 002°22'0 0.0
2018-May-16 05:52N 51°03' E 002°22'0 0.0
2018-May-16 05:28N 51°03' E 002°22'0 0.0
2018-May-16 04:55N 51°03' E 002°22'0 0.0
2018-May-16 04:28N 51°03' E 002°22'0 0.0
2018-May-16 03:58N 51°03' E 002°22'0 0.0
2018-May-16 03:25N 51°03' E 002°22'0 0.0
2018-May-16 02:58N 51°03' E 002°22'0 0.0
2018-May-16 02:28N 51°03' E 002°22'0 0.0
2018-May-16 01:58N 51°03' E 002°22'0 0.0
2018-May-16 01:25N 51°03' E 002°22'0 0.0
2018-May-16 00:52N 51°03' E 002°22'0 0.0
2018-May-16 00:28N 51°03' E 002°22'0 0.0
2018-May-15 23:58N 51°03' E 002°22'0 0.0
2018-May-15 23:28N 51°03' E 002°22'0 0.0
2018-May-15 22:59N 51°03' E 002°22'0 0.0
2018-May-15 22:28N 51°03' E 002°22'0 0.0
2018-May-15 21:46N 51°03' E 002°22'0 0.0
2018-May-15 21:28N 51°03' E 002°22'0 0.0
2018-May-15 20:58N 51°03' E 002°22'0 0.0
2018-May-15 20:28N 51°03' E 002°22'0 0.0
2018-May-15 19:58N 51°03' E 002°22'0 0.0
2018-May-15 19:22N 51°03' E 002°22'0 0.0
2018-May-15 18:58N 51°03' E 002°22'0 0.0
2018-May-15 18:28N 51°03' E 002°22'0 0.0
2018-May-15 17:58N 51°03' E 002°22'0 0.0
2018-May-15 17:28N 51°03' E 002°22'0 0.0
2018-May-15 16:58N 51°03' E 002°22'0 0.0
2018-May-15 16:28N 51°03' E 002°22'0 0.0
2018-May-15 15:58N 51°03' E 002°22'0 0.0
2018-May-15 15:28N 51°03' E 002°22'0 0.0
2018-May-15 14:58N 51°03' E 002°22'0 0.0
2018-May-15 14:22N 51°03' E 002°22'0 0.0
2018-May-15 13:58N 51°03' E 002°22'0 0.0
2018-May-15 13:28N 51°03' E 002°22'0 0.0
2018-May-15 12:58N 51°03' E 002°22'0 0.0
2018-May-15 12:25N 51°03' E 002°22'0 0.0
2018-May-15 11:46N 51°03' E 002°22'0 0.0
2018-May-15 11:25N 51°03' E 002°22'0 0.0
2018-May-15 10:46N 51°03' E 002°22'0 0.0
2018-May-15 10:22N 51°03' E 002°22'0 0.0
2018-May-15 09:58N 51°03' E 002°22'0 0.0
2018-May-15 09:28N 51°03' E 002°22'0 0.0
2018-May-15 08:52N 51°03' E 002°22'0 0.0
2018-May-15 08:10N 51°03' E 002°22'0 0.0
2018-May-15 07:58N 51°03' E 002°22'0 0.0
2018-May-15 07:16N 51°03' E 002°22'0 0.0
2018-May-15 06:58N 51°03' E 002°22'0 0.0
2018-May-15 06:28N 51°03' E 002°22'0 0.0
2018-May-15 05:58N 51°03' E 002°22'0 0.0
2018-May-15 05:28N 51°03' E 002°22'0 0.0
2018-May-15 04:58N 51°03' E 002°22'0 0.0
2018-May-15 04:22N 51°03' E 002°22'0 0.0
2018-May-15 03:46N 51°03' E 002°22'0 0.0
2018-May-15 03:28N 51°03' E 002°22'0 0.0
2018-May-15 02:52N 51°03' E 002°22'0 0.0
2018-May-15 02:28N 51°03' E 002°22'0 0.0
2018-May-15 01:58N 51°03' E 002°22'0 0.0
2018-May-15 01:25N 51°03' E 002°22'0 0.0
2018-May-15 00:58N 51°03' E 002°22'0 0.0
2018-May-15 00:28N 51°03' E 002°22'0 0.0
2018-May-14 23:58N 51°03' E 002°22'0 0.0
2018-May-14 23:16N 51°03' E 002°22'0 0.0
2018-May-14 22:58N 51°03' E 002°22'0 0.0
2018-May-14 22:25N 51°03' E 002°22'0 0.0
2018-May-14 21:58N 51°03' E 002°22'0 0.0
2018-May-14 21:28N 51°03' E 002°22'0 0.0
2018-May-14 20:55N 51°03' E 002°22'0 0.0
2018-May-14 20:19N 51°03' E 002°22'0 0.0
2018-May-14 19:55N 51°03' E 002°22'0 0.0
2018-May-14 19:19N 51°03' E 002°22'0 0.0
2018-May-14 18:58N 51°03' E 002°22'0 0.0
2018-May-14 18:28N 51°03' E 002°22'0 0.0
2018-May-14 17:55N 51°03' E 002°22'0 0.0
2018-May-14 17:16N 51°03' E 002°22'0 0.0
2018-May-14 16:58N 51°03' E 002°22'0 0.0
2018-May-14 16:22N 51°03' E 002°22'0 0.0
2018-May-14 15:52N 51°03' E 002°22'  

Dump ship's entire track history